createdAt,value
2022-07-29T00:01:04.434Z,18.59
2022-07-29T00:04:07.731Z,18.65
2022-07-29T00:07:10.588Z,18.52
2022-07-29T00:10:15.396Z,18.40
2022-07-29T00:13:18.060Z,18.43
2022-07-29T00:16:34.964Z,18.41
2022-07-29T00:19:37.635Z,18.38
2022-07-29T00:22:40.722Z,18.16
2022-07-29T00:25:43.305Z,18.09
2022-07-29T00:28:46.234Z,18.08
2022-07-29T00:31:50.862Z,18.06
2022-07-29T00:35:12.334Z,17.97
2022-07-29T00:38:16.752Z,17.97
2022-07-29T00:41:19.840Z,18.00
2022-07-29T00:44:22.493Z,17.90
2022-07-29T00:47:25.417Z,18.02
2022-07-29T00:50:28.240Z,18.00
2022-07-29T00:53:32.115Z,17.96
2022-07-29T00:56:35.335Z,17.94
2022-07-29T00:59:38.454Z,17.85
2022-07-29T01:02:41.174Z,17.81
2022-07-29T01:05:49.606Z,17.77
2022-07-29T01:08:54.636Z,17.82
2022-07-29T01:11:58.258Z,17.85
2022-07-29T01:15:02.666Z,17.82
2022-07-29T01:18:18.151Z,17.80
2022-07-29T01:21:46.570Z,17.71
2022-07-29T01:25:01.663Z,17.69
2022-07-29T01:28:42.141Z,17.71
2022-07-29T01:32:03.037Z,17.64
2022-07-29T01:35:20.052Z,17.49
2022-07-29T01:38:29.106Z,17.61
2022-07-29T01:41:36.119Z,17.60
2022-07-29T01:44:45.132Z,17.59
2022-07-29T01:48:10.847Z,17.45
2022-07-29T01:51:29.926Z,17.57
2022-07-29T01:54:46.977Z,17.58
2022-07-29T01:57:50.740Z,17.51
2022-07-29T02:00:54.868Z,17.49
2022-07-29T02:04:00.397Z,17.50
2022-07-29T02:07:08.508Z,17.43
2022-07-29T02:10:14.006Z,17.47
2022-07-29T02:13:19.754Z,17.43
2022-07-29T02:16:25.047Z,17.30
2022-07-29T02:19:30.357Z,17.41
2022-07-29T02:22:38.143Z,17.26
2022-07-29T02:25:43.010Z,17.27
2022-07-29T02:28:48.333Z,17.37
2022-07-29T02:31:52.861Z,17.34
2022-07-29T02:34:57.706Z,17.33
2022-07-29T02:38:19.302Z,17.22
2022-07-29T02:41:30.619Z,17.38
2022-07-29T02:44:36.109Z,17.56
2022-07-29T02:47:47.988Z,17.67
2022-07-29T02:50:58.775Z,17.82
2022-07-29T02:54:07.726Z,17.83
2022-07-29T02:57:54.903Z,17.96
2022-07-29T03:01:03.094Z,18.52
2022-07-29T03:04:07.026Z,18.60
2022-07-29T03:07:11.978Z,18.73
2022-07-29T03:10:14.799Z,18.72
2022-07-29T03:13:19.830Z,18.85
2022-07-29T03:16:24.902Z,18.86
2022-07-29T03:19:28.733Z,18.84
2022-07-29T03:22:31.761Z,19.11
2022-07-29T03:25:34.817Z,19.04
2022-07-29T03:28:37.456Z,19.23
2022-07-29T03:31:43.715Z,19.41
2022-07-29T03:34:46.478Z,19.22
2022-07-29T03:37:50.102Z,19.27
2022-07-29T03:40:57.061Z,19.19
2022-07-29T03:44:00.999Z,19.45
2022-07-29T03:47:07.506Z,19.57
2022-07-29T03:50:14.183Z,19.60
2022-07-29T03:53:17.150Z,19.55
2022-07-29T03:56:22.848Z,19.82
2022-07-29T03:59:25.506Z,19.87
2022-07-29T04:02:30.762Z,19.93
2022-07-29T04:05:34.191Z,20.05
2022-07-29T04:08:36.977Z,20.25
2022-07-29T04:12:02.104Z,20.25
2022-07-29T04:15:07.647Z,20.24
2022-07-29T04:18:10.837Z,20.33
2022-07-29T04:21:13.437Z,20.49
2022-07-29T04:24:17.399Z,20.56
2022-07-29T04:27:20.388Z,20.56
2022-07-29T04:30:24.476Z,20.68
2022-07-29T04:33:27.190Z,20.69
2022-07-29T04:36:30.269Z,20.90
2022-07-29T04:39:32.934Z,21.21
2022-07-29T04:42:35.806Z,21.77
2022-07-29T04:45:49.404Z,22.58
2022-07-29T04:48:52.607Z,23.64
2022-07-29T04:51:55.486Z,23.90
2022-07-29T04:54:58.428Z,24.69
2022-07-29T04:58:01.574Z,25.33
2022-07-29T05:01:05.552Z,25.87
2022-07-29T05:04:08.272Z,26.52
2022-07-29T05:07:11.347Z,26.37
2022-07-29T05:10:13.953Z,25.68
2022-07-29T05:13:17.147Z,26.11
2022-07-29T05:16:19.968Z,26.35
2022-07-29T05:19:23.219Z,26.03
2022-07-29T05:22:25.824Z,25.99
2022-07-29T05:25:44.436Z,26.24
2022-07-29T05:28:47.502Z,26.65
2022-07-29T05:31:52.026Z,26.43
2022-07-29T05:34:54.617Z,27.80
2022-07-29T05:37:57.578Z,28.40
2022-07-29T05:41:00.734Z,28.73
2022-07-29T05:44:03.762Z,28.95
2022-07-29T05:47:07.455Z,29.42
2022-07-29T05:50:10.414Z,29.90
2022-07-29T05:53:18.989Z,30.03
2022-07-29T05:56:23.098Z,30.07
2022-07-29T05:59:30.120Z,30.08
2022-07-29T06:02:33.309Z,31.13
2022-07-29T06:05:36.369Z,31.40
2022-07-29T06:08:39.745Z,31.59
2022-07-29T06:11:42.631Z,31.54
2022-07-29T06:14:45.226Z,32.18
2022-07-29T06:17:59.840Z,30.98
2022-07-29T06:21:09.685Z,31.28
2022-07-29T06:24:13.898Z,31.84
2022-07-29T06:27:17.360Z,32.05
2022-07-29T06:30:20.414Z,32.51
2022-07-29T06:33:23.056Z,32.74
2022-07-29T06:36:26.149Z,32.73
2022-07-29T06:39:29.158Z,32.64
2022-07-29T06:42:32.098Z,31.97
2022-07-29T06:45:35.494Z,32.41
2022-07-29T06:48:38.660Z,32.73
2022-07-29T06:51:41.733Z,32.15
2022-07-29T06:54:49.049Z,32.76
2022-07-29T06:57:52.294Z,32.42
2022-07-29T07:00:55.372Z,32.18
2022-07-29T07:03:58.004Z,32.89
2022-07-29T07:07:01.619Z,32.73
2022-07-29T07:10:05.018Z,33.38
2022-07-29T07:13:08.088Z,33.16
2022-07-29T12:10:19.983Z,32.61
2022-07-29T12:13:39.961Z,32.61
2022-07-29T12:16:42.588Z,32.28
2022-07-29T12:19:46.992Z,32.02
2022-07-29T12:22:55.497Z,32.32
2022-07-29T12:26:00.147Z,32.50
2022-07-29T12:29:03.610Z,32.36
2022-07-29T12:32:14.433Z,32.18
2022-07-29T12:35:22.555Z,32.17
2022-07-29T12:38:26.401Z,32.22
2022-07-29T12:41:30.226Z,32.15
2022-07-29T12:44:50.415Z,32.25
2022-07-29T12:47:54.302Z,32.38
2022-07-29T12:51:01.193Z,32.24
2022-07-29T12:54:12.679Z,32.56
2022-07-29T12:57:19.835Z,32.46
2022-07-29T13:00:25.138Z,32.29
2022-07-29T13:03:28.336Z,32.51
2022-07-29T13:06:39.425Z,32.48
2022-07-29T13:09:48.514Z,32.50
2022-07-29T13:13:09.762Z,32.45
2022-07-29T13:16:12.977Z,32.36
2022-07-29T13:19:16.058Z,32.25
2022-07-29T13:22:24.628Z,31.94
2022-07-29T13:25:32.816Z,32.18
2022-07-29T13:28:35.974Z,32.45
2022-07-29T13:31:38.886Z,32.32
2022-07-29T13:34:41.938Z,32.28
2022-07-29T13:37:45.357Z,32.17
2022-07-29T13:40:48.742Z,32.25
2022-07-29T13:43:51.406Z,32.23
2022-07-29T13:46:54.502Z,32.25
2022-07-29T13:49:57.162Z,32.14
2022-07-29T13:53:00.447Z,32.05
2022-07-29T13:56:03.417Z,32.13
2022-07-29T13:59:06.970Z,32.11
2022-07-29T14:02:11.162Z,32.01
2022-07-29T14:05:14.094Z,32.19
2022-07-29T14:08:16.865Z,32.08
2022-07-29T14:11:20.007Z,32.19
2022-07-29T14:14:22.661Z,32.36
2022-07-29T14:17:25.673Z,32.27
2022-07-29T14:20:30.873Z,32.40
2022-07-29T14:23:33.787Z,32.41
2022-07-29T14:26:36.455Z,32.40
2022-07-29T14:29:39.538Z,32.48
2022-07-29T14:32:42.578Z,32.49
2022-07-29T14:35:46.670Z,32.37
2022-07-29T14:38:49.293Z,32.32
2022-07-29T14:41:52.855Z,32.34
2022-07-29T14:44:55.578Z,32.31
2022-07-29T14:47:58.788Z,32.29
2022-07-29T14:51:04.730Z,32.47
2022-07-29T14:54:08.137Z,32.53
2022-07-29T14:57:10.835Z,32.45
2022-07-29T15:00:15.121Z,32.53
2022-07-29T15:03:23.729Z,32.60
2022-07-29T15:06:27.986Z,32.42
2022-07-29T15:09:30.544Z,32.23
2022-07-29T15:12:33.627Z,32.22
2022-07-29T15:15:36.642Z,32.28
2022-07-29T15:18:39.722Z,32.35
2022-07-29T15:21:48.787Z,32.33
2022-07-29T15:25:02.594Z,32.32
2022-07-29T15:28:08.092Z,32.36
2022-07-29T15:31:11.015Z,32.25
2022-07-29T15:34:13.648Z,32.23
2022-07-29T15:37:16.707Z,32.08
2022-07-29T15:40:19.862Z,32.07
2022-07-29T15:43:23.374Z,32.03
2022-07-29T15:46:44.786Z,32.07
2022-07-29T15:49:49.500Z,32.04
2022-07-29T15:52:52.272Z,32.04
2022-07-29T15:55:55.354Z,32.01
2022-07-29T15:58:58.702Z,31.84
2022-07-29T16:02:01.881Z,31.74
2022-07-29T16:05:05.727Z,31.73
2022-07-29T16:08:12.240Z,31.69
2022-07-29T16:11:15.159Z,31.58
2022-07-29T16:14:18.326Z,31.63
2022-07-29T16:17:21.413Z,31.47
2022-07-29T16:20:24.239Z,31.52
2022-07-29T16:23:27.181Z,31.46
2022-07-29T16:26:29.750Z,31.36
2022-07-29T16:29:32.696Z,31.28
2022-07-29T16:32:35.803Z,31.16
2022-07-29T16:35:40.460Z,31.13
2022-07-29T16:38:47.275Z,31.01
2022-07-29T16:41:50.678Z,30.92
2022-07-29T16:44:53.389Z,30.73
2022-07-29T16:48:00.349Z,30.66
2022-07-29T16:51:03.961Z,30.56
2022-07-29T16:54:08.702Z,30.44
2022-07-29T16:57:11.914Z,30.34
2022-07-29T17:00:16.951Z,30.21
2022-07-29T17:03:19.642Z,30.14
2022-07-29T17:06:22.735Z,30.03
2022-07-29T17:09:25.678Z,29.94
2022-07-29T17:12:28.786Z,29.76
2022-07-29T17:15:31.605Z,29.74
2022-07-29T17:18:39.620Z,29.72
2022-07-29T17:21:49.023Z,29.58
2022-07-29T17:24:52.473Z,29.45
2022-07-29T17:28:00.559Z,29.22
2022-07-29T17:31:04.019Z,29.06
2022-07-29T17:34:07.521Z,28.86
2022-07-29T17:37:12.275Z,28.70
2022-07-29T17:40:14.938Z,28.58
2022-07-29T17:43:18.006Z,28.43
2022-07-29T17:46:22.319Z,28.27
2022-07-29T17:49:25.610Z,28.18
2022-07-29T17:52:28.394Z,28.08
2022-07-29T17:55:31.380Z,27.91
2022-07-29T17:58:34.718Z,27.76
2022-07-29T18:01:40.156Z,27.55
2022-07-29T18:04:43.553Z,27.38
2022-07-29T18:07:46.490Z,27.19
2022-07-29T18:10:50.012Z,27.03
2022-07-29T18:13:52.777Z,26.73
2022-07-29T18:16:56.688Z,26.62
2022-07-29T18:20:00.546Z,26.40
2022-07-29T18:23:04.382Z,26.20
2022-07-29T18:26:07.086Z,26.07
2022-07-29T18:29:10.505Z,25.81
2022-07-29T18:32:13.577Z,25.69
2022-07-29T18:35:17.509Z,25.52
2022-07-29T18:38:21.966Z,25.28
2022-07-29T18:41:25.929Z,25.14
2022-07-29T18:44:29.163Z,24.98
2022-07-29T18:47:32.585Z,24.85
2022-07-29T18:50:36.353Z,24.69
2022-07-29T18:53:39.546Z,24.54
2022-07-29T18:56:42.241Z,24.42
2022-07-29T18:59:45.383Z,24.31
2022-07-29T19:02:48.121Z,24.20
2022-07-29T19:05:51.593Z,24.06
2022-07-29T19:08:54.604Z,24.03
2022-07-29T19:12:03.637Z,24.05
2022-07-29T19:15:08.228Z,24.28
2022-07-29T19:18:13.288Z,24.72
2022-07-29T19:21:15.952Z,24.89
2022-07-29T19:24:20.359Z,25.00
2022-07-29T19:27:23.224Z,25.05
2022-07-29T19:30:26.433Z,25.04
2022-07-29T19:33:29.650Z,24.94
2022-07-29T19:36:32.716Z,24.89
2022-07-29T19:39:35.780Z,24.79
2022-07-29T19:42:38.812Z,24.74
2022-07-29T19:45:41.659Z,24.90
2022-07-29T19:48:45.262Z,24.98
2022-07-29T19:51:48.058Z,25.18
2022-07-29T19:54:50.977Z,25.34
2022-07-29T19:57:53.839Z,25.44
2022-07-29T20:00:56.898Z,25.59
2022-07-29T20:03:59.974Z,25.58
2022-07-29T20:07:02.991Z,25.54
2022-07-29T20:10:08.093Z,25.49
2022-07-29T20:13:10.958Z,25.48
2022-07-29T20:16:13.919Z,25.59
2022-07-29T20:19:17.371Z,25.60
2022-07-29T20:22:21.556Z,25.55
2022-07-29T20:25:24.270Z,25.58
2022-07-29T20:28:27.691Z,25.54
2022-07-29T20:31:30.626Z,25.51
2022-07-29T20:34:33.664Z,25.49
2022-07-29T20:37:56.003Z,25.35
2022-07-29T20:40:59.264Z,25.29
2022-07-29T20:44:03.151Z,25.39
2022-07-29T20:47:06.190Z,25.39
2022-07-29T20:50:10.144Z,25.25
2022-07-29T20:53:13.733Z,25.19
2022-07-29T20:56:16.510Z,25.12
2022-07-29T20:59:19.601Z,24.96
2022-07-29T21:02:22.255Z,24.90
2022-07-29T21:05:25.312Z,24.82
2022-07-29T21:08:28.075Z,24.67
2022-07-29T21:11:42.851Z,24.69
2022-07-29T21:14:48.135Z,24.64
2022-07-29T21:17:52.748Z,24.60
2022-07-29T21:20:55.875Z,24.62
2022-07-29T21:23:58.946Z,24.62
2022-07-29T21:27:21.692Z,24.52
2022-07-29T21:30:24.950Z,24.54
2022-07-29T21:33:31.861Z,24.52
2022-07-29T21:36:50.146Z,24.56
2022-07-29T21:39:52.808Z,24.56
2022-07-29T21:42:55.820Z,24.52
2022-07-29T21:46:00.019Z,24.61
2022-07-29T21:49:03.044Z,24.59
2022-07-29T21:52:06.105Z,24.58
2022-07-29T21:55:11.601Z,24.58
2022-07-29T21:58:15.637Z,24.50
2022-07-29T22:01:19.411Z,24.35
2022-07-29T22:04:22.507Z,24.14
2022-07-29T22:07:25.238Z,23.99
2022-07-29T22:10:48.161Z,23.84
2022-07-29T22:13:50.769Z,23.67
2022-07-29T22:16:58.016Z,23.61
2022-07-29T22:20:01.109Z,23.59
2022-07-29T22:23:04.042Z,23.52
2022-07-29T22:26:06.981Z,23.57
2022-07-29T22:29:17.646Z,23.56
2022-07-29T22:32:20.352Z,23.46
2022-07-29T22:35:23.263Z,23.45
2022-07-29T22:38:25.915Z,23.42
2022-07-29T22:41:28.913Z,23.28
2022-07-29T22:44:31.795Z,23.25
2022-07-29T22:47:46.595Z,23.19
2022-07-29T22:50:51.688Z,23.13
2022-07-29T22:53:54.585Z,23.10
2022-07-29T22:56:57.432Z,23.08
2022-07-29T23:00:03.713Z,23.04
2022-07-29T23:03:06.359Z,22.96
2022-07-29T23:06:09.612Z,23.00
2022-07-29T23:09:12.278Z,22.96
2022-07-29T23:12:15.265Z,23.01
2022-07-29T23:15:18.229Z,23.39
2022-07-29T23:18:21.283Z,23.65
2022-07-29T23:21:24.598Z,23.80
2022-07-29T23:24:27.555Z,23.93
2022-07-29T23:27:30.298Z,23.96
2022-07-29T23:30:33.343Z,23.89
2022-07-29T23:33:36.006Z,23.75
2022-07-29T23:36:39.033Z,23.63
2022-07-29T23:39:41.623Z,23.63
2022-07-29T23:42:46.082Z,23.52
2022-07-29T23:45:49.011Z,23.34
2022-07-29T23:48:52.380Z,23.20
2022-07-29T23:51:55.056Z,23.08
2022-07-29T23:55:38.255Z,23.07
2022-07-29T23:58:20.835Z,23.15
